createdAt,value
2019-02-16T00:00:15.473Z,98948.84
2019-02-16T00:02:43.870Z,98947.48
2019-02-16T00:05:12.263Z,98945.64
2019-02-16T00:07:40.658Z,98946.92
2019-02-16T00:10:09.189Z,98939.70
2019-02-16T00:12:37.593Z,98941.03
2019-02-16T00:15:07.909Z,98935.94
2019-02-16T00:17:36.327Z,98932.08
2019-02-16T00:20:07.300Z,98924.41
2019-02-16T00:22:35.700Z,98925.21
2019-02-16T00:25:05.124Z,98924.31
2019-02-16T00:27:33.526Z,98926.38
2019-02-16T00:30:01.924Z,98915.69
2019-02-16T00:32:30.322Z,98925.38
2019-02-16T00:34:58.716Z,98921.11
2019-02-16T00:37:27.122Z,98921.52
2019-02-16T00:39:55.509Z,98918.13
2019-02-16T00:42:23.976Z,98912.11
2019-02-16T00:44:52.369Z,98910.31
2019-02-16T00:47:20.800Z,98911.48
2019-02-16T00:49:49.188Z,98911.85
2019-02-16T00:52:17.585Z,98916.00
2019-02-16T00:54:45.981Z,98906.67
2019-02-16T00:57:14.372Z,98911.66
2019-02-16T00:59:42.769Z,98916.27
2019-02-16T01:02:11.162Z,98908.55
2019-02-16T01:04:39.560Z,98913.09
2019-02-16T01:07:07.954Z,98909.72
2019-02-16T01:09:36.347Z,98906.80
2019-02-16T01:12:04.738Z,98906.91
2019-02-16T01:14:33.133Z,98898.48
2019-02-16T01:17:01.545Z,98895.47
2019-02-16T01:19:29.934Z,98896.31
2019-02-16T01:21:58.331Z,98893.67
2019-02-16T01:24:26.738Z,98894.47
2019-02-16T01:26:55.134Z,98894.47
2019-02-16T01:29:23.526Z,98888.59
2019-02-16T01:31:51.922Z,98887.69
2019-02-16T01:34:20.320Z,98882.94
2019-02-16T01:36:48.711Z,98879.03
2019-02-16T01:39:17.106Z,98879.77
2019-02-16T01:41:47.486Z,98887.77
2019-02-16T01:44:15.631Z,98878.78
2019-02-16T01:46:44.039Z,98879.56
2019-02-16T01:49:12.428Z,98876.07
2019-02-16T01:51:40.817Z,98876.02
2019-02-16T01:54:09.232Z,98869.30
2019-02-16T01:56:37.616Z,98864.69
2019-02-16T01:59:06.014Z,98865.50
2019-02-16T02:01:34.403Z,98859.95
2019-02-16T02:04:02.809Z,98857.45
2019-02-16T02:06:31.209Z,98854.97
2019-02-16T02:08:59.610Z,98851.16
2019-02-16T02:11:28.005Z,98846.08
2019-02-16T02:13:56.411Z,98844.38
2019-02-16T02:16:24.802Z,98843.91
2019-02-16T02:18:53.198Z,98835.81
2019-02-16T02:21:21.591Z,98836.98
2019-02-16T02:23:49.992Z,98832.18
2019-02-16T02:26:18.385Z,98833.77
2019-02-16T02:28:46.772Z,98825.53
2019-02-16T02:31:15.167Z,98830.97
2019-02-16T02:33:43.561Z,98800.27
2019-02-16T02:36:11.950Z,98831.73
2019-02-16T02:38:40.342Z,98834.22
2019-02-16T02:41:08.765Z,98821.08
2019-02-16T02:43:37.151Z,98826.11
2019-02-16T02:46:05.550Z,98829.87
2019-02-16T02:48:33.938Z,98824.42
2019-02-16T02:51:02.329Z,98824.80
2019-02-16T02:53:31.815Z,98821.69
2019-02-16T02:56:00.289Z,98822.91
2019-02-16T02:58:28.692Z,98819.95
2019-02-16T03:00:57.121Z,98816.14
2019-02-16T03:03:25.510Z,98814.87
2019-02-16T03:05:53.901Z,98808.89
2019-02-16T03:08:22.288Z,98812.31
2019-02-16T03:10:50.682Z,98811.89
2019-02-16T03:13:19.079Z,98813.60
2019-02-16T03:15:47.469Z,98812.31
2019-02-16T03:18:15.880Z,98816.50
2019-02-16T03:20:44.268Z,98813.97
2019-02-16T03:23:15.042Z,98811.42
2019-02-16T03:25:46.613Z,98815.13
2019-02-16T03:28:27.101Z,98818.50
2019-02-16T03:31:04.539Z,98818.41
2019-02-16T03:33:44.732Z,98816.20
2019-02-16T03:36:25.029Z,98816.56
2019-02-16T03:38:56.470Z,98822.80
2019-02-16T03:41:24.866Z,98821.02
2019-02-16T03:43:53.255Z,98817.72
2019-02-16T03:46:21.670Z,98820.78
2019-02-16T03:48:50.076Z,98819.09
2019-02-16T03:51:18.470Z,98816.92
2019-02-16T03:53:47.263Z,98822.00
2019-02-16T03:56:15.657Z,98825.45
2019-02-16T03:58:44.048Z,98822.44
2019-02-16T04:01:12.438Z,98821.64
2019-02-16T04:03:40.828Z,98825.34
2019-02-16T04:06:09.226Z,98832.80
2019-02-16T04:08:37.608Z,98834.42
2019-02-16T04:11:05.997Z,98836.91
2019-02-16T04:13:34.457Z,98832.69
2019-02-16T04:16:02.849Z,98836.22
2019-02-16T04:18:31.246Z,98837.88
2019-02-16T04:20:59.633Z,98837.38
2019-02-16T04:23:28.048Z,98836.97
2019-02-16T04:25:56.442Z,98842.52
2019-02-16T04:28:24.834Z,98840.41
2019-02-16T04:30:53.226Z,98837.02
2019-02-16T04:33:21.626Z,98840.36
2019-02-16T04:35:50.004Z,98836.91
2019-02-16T04:38:18.397Z,98829.77
2019-02-16T04:40:46.804Z,98835.23
2019-02-16T04:43:15.192Z,98829.99
2019-02-16T04:45:43.589Z,98834.11
2019-02-16T04:48:11.979Z,98831.05
2019-02-16T04:50:40.367Z,98836.02
2019-02-16T04:53:08.793Z,98833.05
2019-02-16T04:55:37.153Z,98834.75
2019-02-16T04:58:05.617Z,98836.48
2019-02-16T05:00:34.000Z,98836.02
2019-02-16T05:03:02.404Z,98835.16
2019-02-16T05:05:30.800Z,98813.23
2019-02-16T05:07:59.245Z,98833.05
2019-02-16T05:10:27.621Z,98836.38
2019-02-16T05:12:56.014Z,98835.53
2019-02-16T05:15:24.402Z,98826.13
2019-02-16T05:17:52.800Z,98833.19
2019-02-16T05:20:21.194Z,98828.45
2019-02-16T05:22:49.581Z,98833.41
2019-02-16T05:25:17.970Z,98832.50
2019-02-16T05:27:46.358Z,98835.51
2019-02-16T05:30:14.753Z,98835.04
2019-02-16T05:32:43.165Z,98834.63
2019-02-16T05:35:11.582Z,98835.51
2019-02-16T05:37:39.968Z,98835.51
2019-02-16T05:40:09.030Z,98840.96
2019-02-16T05:42:37.423Z,98845.55
2019-02-16T05:45:06.550Z,98844.64
2019-02-16T05:47:34.945Z,98843.70
2019-02-16T05:50:03.443Z,98841.46
2019-02-16T05:52:31.836Z,98841.05
2019-02-16T05:55:00.316Z,98839.45
2019-02-16T05:57:28.648Z,98835.23
2019-02-16T05:59:57.036Z,98841.58
2019-02-16T06:02:25.430Z,98841.69
2019-02-16T06:04:53.821Z,98845.08
2019-02-16T06:07:22.217Z,98844.66
2019-02-16T06:09:50.613Z,98851.05
2019-02-16T06:12:18.999Z,98850.25
2019-02-16T06:14:47.396Z,98853.95
2019-02-16T06:17:15.789Z,98856.05
2019-02-16T06:19:44.185Z,98862.88
2019-02-16T06:22:12.573Z,98858.61
2019-02-16T06:24:40.974Z,98859.02
2019-02-16T06:27:09.392Z,98864.09
2019-02-16T06:29:37.860Z,98864.92
2019-02-16T06:32:06.258Z,98862.03
2019-02-16T06:34:34.654Z,98865.11
2019-02-16T06:37:04.768Z,98861.78
2019-02-16T06:39:33.162Z,98867.32
2019-02-16T06:42:01.553Z,98877.47
2019-02-16T06:44:29.945Z,98875.67
2019-02-16T06:46:58.345Z,98888.05
2019-02-16T06:49:26.733Z,98889.43
2019-02-16T06:51:55.140Z,98893.70
2019-02-16T06:54:23.527Z,98895.45
2019-02-16T06:57:02.392Z,98899.69
2019-02-16T06:59:30.782Z,98895.09
2019-02-16T07:01:59.175Z,98901.95
2019-02-16T07:04:27.559Z,98896.16
2019-02-16T07:06:55.988Z,98898.81
2019-02-16T07:09:24.380Z,98905.20
2019-02-16T07:11:52.784Z,98901.51
2019-02-16T07:14:21.175Z,98903.69
2019-02-16T07:16:51.208Z,98902.78
2019-02-16T07:19:21.246Z,98903.94
2019-02-16T07:21:49.653Z,98912.81
2019-02-16T07:24:18.032Z,98914.14
2019-02-16T07:26:46.430Z,98913.67
2019-02-16T07:29:14.820Z,98912.45
2019-02-16T07:31:43.213Z,98913.51
2019-02-16T07:34:11.601Z,98914.58
2019-02-16T07:36:40.016Z,98917.28
2019-02-16T07:39:08.624Z,98916.45
2019-02-16T07:41:37.020Z,98916.13
2019-02-16T07:44:15.501Z,98917.08
2019-02-16T07:46:51.265Z,98912.60
2019-02-16T07:49:27.029Z,98914.91
2019-02-16T07:51:57.119Z,98916.73
2019-02-16T07:54:32.557Z,98919.48
2019-02-16T07:57:05.065Z,98911.97
2019-02-16T07:59:35.096Z,98914.19
2019-02-16T08:02:05.133Z,98919.42
2019-02-16T08:04:38.014Z,98923.34
2019-02-16T08:07:11.109Z,98926.03
2019-02-16T08:09:59.152Z,98922.38
2019-02-16T08:12:47.519Z,98921.21
2019-02-16T08:15:29.397Z,98920.52
2019-02-16T08:17:59.452Z,98920.24
2019-02-16T08:20:46.007Z,98914.84
2019-02-16T08:23:40.004Z,98911.55
2019-02-16T08:26:03.723Z,98908.80
2019-02-16T08:28:36.516Z,98905.94
2019-02-16T08:31:12.521Z,98906.03
2019-02-16T08:33:57.765Z,98905.76
2019-02-16T08:36:27.829Z,98900.34
2019-02-16T08:38:58.116Z,98909.05
2019-02-16T08:41:31.055Z,98907.47
2019-02-16T08:44:07.252Z,98905.53
2019-02-16T08:46:37.319Z,98897.11
2019-02-16T08:49:13.909Z,98890.98
2019-02-16T08:51:44.103Z,98894.14
2019-02-16T08:54:14.129Z,98894.66
2019-02-16T08:56:47.044Z,98897.81
2019-02-16T08:59:22.895Z,98895.45
2019-02-16T09:01:58.965Z,98893.89
2019-02-16T09:04:44.084Z,98889.78
2019-02-16T09:07:14.146Z,98880.25
2019-02-16T09:09:44.177Z,98875.42
2019-02-16T09:12:16.772Z,98881.20
2019-02-16T09:14:49.245Z,98886.84
2019-02-16T09:17:35.385Z,98881.12
2019-02-16T09:20:12.624Z,98877.89
2019-02-16T09:22:54.634Z,98879.28
2019-02-16T09:25:37.009Z,98877.75
2019-02-16T09:28:09.520Z,98878.51
2019-02-16T09:30:39.548Z,98877.94
2019-02-16T09:33:26.046Z,98875.16
2019-02-16T09:35:59.235Z,98883.03
2019-02-16T09:38:35.450Z,98876.89
2019-02-16T09:41:08.031Z,98878.82
2019-02-16T09:43:47.071Z,98870.58
2019-02-16T09:46:22.772Z,98873.23
2019-02-16T09:48:52.932Z,98875.12
2019-02-16T09:51:22.975Z,98879.48
2019-02-16T09:54:07.967Z,98882.98
2019-02-16T09:56:30.752Z,98884.86
2019-02-16T09:59:06.621Z,98884.61
2019-02-16T10:01:52.084Z,98879.28
2019-02-16T10:04:27.779Z,98880.89
2019-02-16T10:07:06.675Z,98880.76
2019-02-16T10:09:39.427Z,98884.45
2019-02-16T10:12:09.482Z,98887.98
2019-02-16T10:14:51.450Z,98868.97
2019-02-16T10:17:27.519Z,98893.08
2019-02-16T10:19:57.612Z,98892.39
2019-02-16T10:22:45.689Z,98887.82
2019-02-16T10:25:15.821Z,98882.83
2019-02-16T10:27:58.143Z,98882.13
2019-02-16T10:30:34.116Z,98883.83
2019-02-16T10:33:04.218Z,98883.55
2019-02-16T10:35:34.245Z,98884.14
2019-02-16T10:38:04.266Z,98888.59
2019-02-16T10:40:34.360Z,98890.11
2019-02-16T10:43:13.112Z,98884.20
2019-02-16T10:45:43.145Z,98882.55
2019-02-16T10:48:15.894Z,98886.52
2019-02-16T10:50:46.091Z,98888.72
2019-02-16T10:53:21.961Z,98879.39
2019-02-16T10:55:57.840Z,98874.34
2019-02-16T10:58:36.966Z,98871.02
2019-02-16T11:01:15.668Z,98867.69
2019-02-16T11:03:48.510Z,98858.73
2019-02-16T11:06:36.994Z,98863.60
2019-02-16T11:09:14.579Z,98857.20
2019-02-16T11:12:00.705Z,98856.56
2019-02-16T11:14:45.735Z,98854.55
2019-02-16T11:17:25.019Z,98852.92
2019-02-16T11:20:10.947Z,98851.27
2019-02-16T11:22:43.686Z,98850.53
2019-02-16T11:25:19.692Z,98819.74
2019-02-16T11:28:04.737Z,98846.47
2019-02-16T11:30:40.746Z,98840.97
2019-02-16T11:33:25.793Z,98839.33
2019-02-16T11:35:55.819Z,98841.89
2019-02-16T11:38:25.896Z,98838.89
2019-02-16T11:40:55.878Z,98835.13
2019-02-16T11:43:41.194Z,98833.08
2019-02-16T11:46:13.797Z,98838.41
2019-02-16T11:48:46.492Z,98831.61
2019-02-16T11:51:16.534Z,98824.78
2019-02-16T11:53:46.687Z,98825.63
2019-02-16T11:56:19.382Z,98828.21
2019-02-16T11:58:52.081Z,98801.27
2019-02-16T12:01:22.118Z,98818.92
2019-02-16T12:03:52.159Z,98812.59
2019-02-16T12:06:22.243Z,98797.28
2019-02-16T12:08:58.220Z,98796.88
2019-02-16T12:11:34.266Z,98795.26
2019-02-16T12:14:17.805Z,98792.36
2019-02-16T12:16:50.661Z,98782.97
2019-02-16T12:19:23.365Z,98783.45
2019-02-16T12:21:53.401Z,98778.76
2019-02-16T12:24:35.433Z,98772.34
2019-02-16T12:27:11.227Z,98774.09
2019-02-16T12:29:41.368Z,98773.70
2019-02-16T12:32:13.824Z,98773.27
2019-02-16T12:34:46.275Z,98769.88
2019-02-16T12:37:28.294Z,98765.63
2019-02-16T12:39:58.308Z,98766.95
2019-02-16T12:42:46.405Z,98763.12
2019-02-16T12:45:22.413Z,98761.02
2019-02-16T12:48:07.434Z,98751.19
2019-02-16T12:50:46.301Z,98750.30
2019-02-16T12:53:16.362Z,98748.58
2019-02-16T12:55:52.099Z,98745.15
2019-02-16T12:58:33.620Z,98736.55
2019-02-16T13:01:20.078Z,98740.00
2019-02-16T13:04:05.954Z,98734.03
2019-02-16T13:06:35.980Z,98728.48
2019-02-16T13:09:08.286Z,98727.63
2019-02-16T13:11:40.729Z,98728.05
2019-02-16T13:14:13.970Z,98726.37
2019-02-16T13:16:59.326Z,98726.38
2019-02-16T13:19:35.352Z,98721.25
2019-02-16T13:22:08.351Z,98718.73
2019-02-16T13:24:38.384Z,98722.09
2019-02-16T13:27:11.112Z,98713.53
2019-02-16T13:29:41.191Z,98718.30
2019-02-16T13:32:11.216Z,98705.87
2019-02-16T13:34:41.316Z,98708.44
2019-02-16T13:37:17.077Z,98712.75
2019-02-16T13:39:52.569Z,98697.33
2019-02-16T13:42:25.052Z,98699.03
2019-02-16T13:44:55.098Z,98698.18
2019-02-16T13:47:25.193Z,98702.00
2019-02-16T13:49:55.241Z,98693.03
2019-02-16T13:52:34.245Z,98689.58
2019-02-16T13:55:04.291Z,98686.16
2019-02-16T13:57:50.820Z,98677.56
2019-02-16T14:00:20.825Z,98672.42
2019-02-16T14:02:51.762Z,98674.11
2019-02-16T14:05:38.176Z,98668.53
2019-02-16T14:08:13.908Z,98673.67
2019-02-16T14:10:49.720Z,98673.23
2019-02-16T14:13:19.844Z,98662.92
2019-02-16T14:15:52.284Z,98655.23
2019-02-16T14:18:20.678Z,98669.36
2019-02-16T14:20:49.151Z,98672.83
2019-02-16T14:23:17.569Z,98667.25
2019-02-16T14:25:45.999Z,98665.53
2019-02-16T14:28:14.359Z,98663.84
2019-02-16T14:30:42.749Z,98666.41
2019-02-16T14:33:11.216Z,98662.95
2019-02-16T14:35:39.607Z,98663.40
2019-02-16T14:38:19.600Z,98661.72
2019-02-16T14:40:48.174Z,98655.69
2019-02-16T14:43:16.655Z,98653.99
2019-02-16T14:45:45.023Z,98656.52
2019-02-16T14:48:13.426Z,98650.97
2019-02-16T14:50:41.870Z,98646.23
2019-02-16T14:53:10.312Z,98650.08
2019-02-16T14:55:38.699Z,98641.97
2019-02-16T14:58:07.085Z,98643.70
2019-02-16T15:00:35.558Z,98641.55
2019-02-16T15:03:04.213Z,98641.14
2019-02-16T15:05:33.599Z,98636.00
2019-02-16T15:08:02.005Z,98630.86
2019-02-16T15:10:30.385Z,98633.84
2019-02-16T15:12:58.784Z,98630.42
2019-02-16T15:15:27.175Z,98636.41
2019-02-16T15:17:55.586Z,98629.14
2019-02-16T15:20:24.045Z,98625.73
2019-02-16T15:22:52.451Z,98628.74
2019-02-16T15:25:20.836Z,98630.86
2019-02-16T15:27:49.240Z,98631.26
2019-02-16T15:30:19.677Z,98626.07
2019-02-16T15:32:48.073Z,98630.38
2019-02-16T15:35:16.469Z,98628.22
2019-02-16T15:37:44.863Z,98634.27
2019-02-16T15:40:14.118Z,98638.56
2019-02-16T15:42:42.520Z,98635.56
2019-02-16T15:45:15.249Z,98630.86
2019-02-16T15:47:44.603Z,98622.70
2019-02-16T15:50:16.785Z,98621.42
2019-02-16T15:52:45.178Z,98620.14
2019-02-16T15:55:13.560Z,98616.73
2019-02-16T15:57:41.988Z,98622.31
2019-02-16T16:00:14.564Z,98617.17
2019-02-16T16:02:42.939Z,98615.02
2019-02-16T16:05:11.324Z,98615.45
2019-02-16T16:07:41.636Z,98612.89
2019-02-16T16:10:14.477Z,98607.75
2019-02-16T16:12:44.499Z,98610.34
2019-02-16T16:15:20.034Z,98611.63
2019-02-16T16:17:58.823Z,98609.94
2019-02-16T16:20:44.797Z,98613.80
2019-02-16T16:23:26.462Z,98617.65
2019-02-16T16:26:18.998Z,98622.75
2019-02-16T16:29:00.881Z,98618.48
2019-02-16T16:31:33.343Z,98618.47
2019-02-16T16:34:19.262Z,98624.43
2019-02-16T16:36:52.075Z,98631.70
2019-02-16T16:39:22.104Z,98632.55
2019-02-16T16:41:52.198Z,98632.09
2019-02-16T16:44:24.676Z,98636.78
2019-02-16T16:47:00.222Z,98640.60
2019-02-16T16:49:32.791Z,98640.56
2019-02-16T16:52:19.027Z,98639.70
2019-02-16T16:54:57.580Z,98631.55
2019-02-16T16:57:33.642Z,98636.66
2019-02-16T17:00:03.687Z,98640.47
2019-02-16T17:02:43.027Z,98649.84
2019-02-16T17:05:15.536Z,98655.79
2019-02-16T17:08:01.711Z,98651.05
2019-02-16T17:10:31.733Z,98653.16
2019-02-16T17:13:04.409Z,98654.39
2019-02-16T17:15:37.606Z,98658.19
2019-02-16T17:18:24.022Z,98662.41
2019-02-16T17:20:56.758Z,98673.44
2019-02-16T17:23:29.513Z,98680.22
2019-02-16T17:25:59.534Z,98670.34
2019-02-16T17:28:32.316Z,98671.56
2019-02-16T17:31:02.341Z,98671.52
2019-02-16T17:33:32.439Z,98675.73
2019-02-16T17:36:11.275Z,98675.23
2019-02-16T17:38:50.343Z,98678.19
2019-02-16T17:41:23.254Z,98682.41
2019-02-16T17:43:53.290Z,98674.68
2019-02-16T17:46:38.034Z,98679.34
2019-02-16T17:49:23.230Z,98677.64
2019-02-16T17:52:05.221Z,98684.45
2019-02-16T17:54:44.480Z,98678.47
2019-02-16T17:57:14.521Z,98677.64
2019-02-16T17:59:44.551Z,98682.31
2019-02-16T18:02:14.582Z,98679.72
2019-02-16T18:04:47.539Z,98680.95
2019-02-16T18:07:17.574Z,98681.34
2019-02-16T18:09:50.597Z,98685.98
2019-02-16T18:12:23.244Z,98690.65
2019-02-16T18:14:53.271Z,98690.62
2019-02-16T18:17:23.295Z,98690.13
2019-02-16T18:19:56.488Z,98681.12
2019-02-16T18:22:26.516Z,98680.25
2019-02-16T18:25:08.873Z,98682.80
2019-02-16T18:27:41.577Z,98673.39
2019-02-16T18:30:27.926Z,98681.03
2019-02-16T18:33:14.105Z,98670.76
2019-02-16T18:36:01.837Z,98673.28
2019-02-16T18:38:31.873Z,98674.13
2019-02-16T18:41:07.874Z,98669.81
2019-02-16T18:43:40.889Z,98678.35
2019-02-16T18:46:14.098Z,98674.05
2019-02-16T18:48:47.470Z,98679.12
2019-02-16T18:51:32.792Z,98674.40
2019-02-16T18:54:19.016Z,98671.34
2019-02-16T18:56:54.701Z,98672.14
2019-02-16T18:59:33.829Z,98677.20
2019-02-16T19:02:03.927Z,98675.84
2019-02-16T19:04:46.208Z,98676.20
2019-02-16T19:07:16.228Z,98676.12
2019-02-16T19:09:58.561Z,98651.06
2019-02-16T19:12:28.584Z,98676.34
2019-02-16T19:15:04.329Z,98684.30
2019-02-16T19:17:34.347Z,98688.06
2019-02-16T19:20:16.478Z,98685.02
2019-02-16T19:22:51.956Z,98685.79
2019-02-16T19:25:24.651Z,98692.53
2019-02-16T19:27:54.693Z,98690.70
2019-02-16T19:30:39.738Z,98685.09
2019-02-16T19:33:18.508Z,98688.91
2019-02-16T19:35:51.199Z,98684.56
2019-02-16T19:38:21.226Z,98685.34
2019-02-16T19:40:54.071Z,98678.43
2019-02-16T19:43:28.138Z,98683.45
2019-02-16T19:46:01.374Z,98691.09
2019-02-16T19:48:33.802Z,98682.98
2019-02-16T19:51:03.825Z,98677.84
2019-02-16T19:53:43.094Z,98676.52
2019-02-16T19:56:19.275Z,98673.03
2019-02-16T19:59:06.019Z,98675.14
2019-02-16T20:01:51.151Z,98673.34
2019-02-16T20:04:24.370Z,98672.02
2019-02-16T20:07:12.996Z,98673.67
2019-02-16T20:09:58.293Z,98669.36
2019-02-16T20:12:29.759Z,98670.97
2019-02-16T20:14:59.948Z,98675.20
2019-02-16T20:17:35.798Z,98679.45
2019-02-16T20:20:19.622Z,98676.42
2019-02-16T20:23:06.841Z,98675.54
2019-02-16T20:25:47.266Z,98679.31
2019-02-16T20:28:19.284Z,98682.63
2019-02-16T20:30:50.059Z,98668.93
2019-02-16T20:33:24.813Z,98673.16
2019-02-16T20:35:58.108Z,98672.61
2019-02-16T20:38:44.420Z,98668.69
2019-02-16T20:41:15.639Z,98663.53
2019-02-16T20:43:45.775Z,98660.92
2019-02-16T20:46:19.083Z,98663.41
2019-02-16T20:48:52.731Z,98658.19
2019-02-16T20:51:38.290Z,98662.41
2019-02-16T20:54:26.047Z,98657.25
2019-02-16T20:57:06.192Z,98655.91
2019-02-16T20:59:36.212Z,98656.23
2019-02-16T21:02:09.155Z,98660.45
2019-02-16T21:04:39.316Z,98662.55
2019-02-16T21:07:12.108Z,98661.67
2019-02-16T21:09:53.829Z,98655.69
2019-02-16T21:12:39.076Z,98650.20
2019-02-16T21:15:09.677Z,98652.69
2019-02-16T21:17:48.437Z,98651.34
2019-02-16T21:20:36.811Z,98644.45
2019-02-16T21:23:22.943Z,98649.91
2019-02-16T21:25:52.985Z,98644.75
2019-02-16T21:28:24.480Z,98645.53
2019-02-16T21:31:00.389Z,98649.75
2019-02-16T21:33:33.240Z,98646.25
2019-02-16T21:36:18.303Z,98645.33
2019-02-16T21:39:03.075Z,98647.39
2019-02-16T21:41:32.033Z,98650.30
2019-02-16T21:44:04.944Z,98651.92
2019-02-16T21:46:37.652Z,98651.47
2019-02-16T21:49:24.812Z,98656.95
2019-02-16T21:52:00.433Z,98650.13
2019-02-16T21:54:36.474Z,98656.03
2019-02-16T21:57:06.510Z,98651.33
2019-02-16T21:59:39.601Z,98650.80
2019-02-16T22:02:09.633Z,98654.55
2019-02-16T22:04:57.819Z,98647.76
2019-02-16T22:07:44.111Z,98656.59
2019-02-16T22:10:14.163Z,98652.70
2019-02-16T22:12:49.931Z,98659.43
2019-02-16T22:15:18.322Z,98656.45
2019-02-16T22:17:46.711Z,98653.03
2019-02-16T22:20:15.100Z,98642.77
2019-02-16T22:22:43.505Z,98649.06
2019-02-16T22:25:11.975Z,98643.48
2019-02-16T22:27:40.356Z,98645.98
2019-02-16T22:30:10.481Z,98643.83
2019-02-16T22:32:38.871Z,98639.90
2019-02-16T22:35:07.691Z,98645.77
2019-02-16T22:37:36.084Z,98644.92
2019-02-16T22:40:05.208Z,98649.55
2019-02-16T22:42:33.601Z,98647.42
2019-02-16T22:45:01.993Z,98645.27
2019-02-16T22:47:30.380Z,98647.34
2019-02-16T22:49:58.773Z,98639.18
2019-02-16T22:52:27.161Z,98641.69
2019-02-16T22:54:55.550Z,98636.14
2019-02-16T22:57:24.007Z,98636.95
2019-02-16T22:59:52.424Z,98636.06
2019-02-16T23:02:20.826Z,98635.17
2019-02-16T23:04:49.208Z,98634.72
2019-02-16T23:07:17.671Z,98633.83
2019-02-16T23:09:46.004Z,98636.30
2019-02-16T23:12:14.399Z,98631.59
2019-02-16T23:14:42.794Z,98629.86
2019-02-16T23:17:11.421Z,98629.78
2019-02-16T23:19:39.822Z,98629.70
2019-02-16T23:22:08.298Z,98628.44
2019-02-16T23:24:36.697Z,98624.62
2019-02-16T23:27:05.163Z,98620.34
2019-02-16T23:29:33.547Z,98618.61
2019-02-16T23:32:01.945Z,98623.66
2019-02-16T23:34:30.347Z,98617.30
2019-02-16T23:36:58.748Z,98621.07
2019-02-16T23:39:27.159Z,98621.45
2019-02-16T23:41:55.533Z,98622.73
2019-02-16T23:44:23.925Z,98625.28
2019-02-16T23:46:52.318Z,98622.66
2019-02-16T23:49:20.710Z,98625.58
2019-02-16T23:51:49.109Z,98631.05
2019-02-16T23:54:17.517Z,98590.36
2019-02-16T23:56:45.933Z,98622.95
2019-02-16T23:59:14.308Z,98622.50
